createdAt,value
2022-09-10T00:01:21.002Z,2.77
2022-09-10T00:04:24.235Z,3.37
2022-09-10T00:07:27.343Z,3.07
2022-09-10T00:10:30.446Z,3.07
2022-09-10T00:13:35.721Z,2.53
2022-09-10T00:16:39.221Z,3.70
2022-09-10T00:19:44.052Z,3.60
2022-09-10T00:22:48.560Z,3.07
2022-09-10T00:25:52.208Z,2.63
2022-09-10T00:28:59.595Z,2.40
2022-09-10T00:32:04.347Z,2.80
2022-09-10T00:35:08.496Z,2.70
2022-09-10T00:38:13.583Z,2.50
2022-09-10T00:41:17.441Z,2.47
2022-09-10T00:45:00.919Z,2.90
2022-09-10T00:48:06.270Z,3.10
2022-09-10T00:51:09.420Z,2.40
2022-09-10T00:54:13.193Z,2.50
2022-09-10T00:57:20.490Z,2.50
2022-09-10T01:00:25.496Z,2.60
2022-09-10T01:03:30.170Z,3.30
2022-09-10T01:06:33.683Z,2.73
2022-09-10T01:09:37.841Z,2.60
2022-09-10T01:13:09.416Z,2.60
2022-09-10T01:16:22.744Z,3.20
2022-09-10T01:19:59.837Z,2.17
2022-09-10T01:23:26.842Z,2.40
2022-09-10T01:26:46.624Z,3.23
2022-09-10T01:29:58.552Z,3.20
2022-09-10T01:33:08.936Z,3.03
2022-09-10T01:36:19.058Z,2.70
2022-09-10T01:39:24.799Z,3.30
2022-09-10T01:42:28.789Z,4.03
2022-09-10T01:45:41.840Z,2.77
2022-09-10T01:49:05.645Z,3.50
2022-09-10T01:52:22.236Z,2.93
2022-09-10T01:55:35.108Z,3.50
2022-09-10T01:58:40.634Z,3.57
2022-09-10T02:01:50.481Z,4.20
2022-09-10T02:04:55.006Z,5.10
2022-09-10T02:08:01.969Z,4.90
2022-09-10T02:11:07.232Z,3.70
2022-09-10T02:14:10.396Z,4.30
2022-09-10T02:17:15.222Z,4.43
2022-09-10T02:20:19.529Z,3.77
2022-09-10T02:23:28.248Z,5.10
2022-09-10T02:26:31.444Z,4.77
2022-09-10T02:29:34.529Z,4.40
2022-09-10T02:32:38.956Z,5.37
2022-09-10T02:35:42.254Z,3.87
2022-09-10T02:38:45.402Z,3.47
2022-09-10T02:41:48.459Z,3.80
2022-09-10T02:44:51.513Z,4.30
2022-09-10T02:47:55.999Z,4.30
2022-09-10T02:50:59.073Z,3.90
2022-09-10T02:54:02.146Z,3.20
2022-09-10T02:57:05.699Z,3.30
2022-09-10T03:00:09.951Z,3.70
2022-09-10T03:03:16.281Z,3.43
2022-09-10T03:06:19.682Z,3.03
2022-09-10T03:09:23.138Z,3.60
2022-09-10T03:12:26.195Z,3.27
2022-09-10T03:15:29.881Z,2.93
2022-09-10T03:18:35.299Z,2.80
2022-09-10T03:21:41.510Z,3.07
2022-09-10T03:24:44.598Z,3.37
2022-09-10T03:27:47.720Z,3.47
2022-09-10T03:30:50.787Z,3.80
2022-09-10T03:33:55.214Z,4.00
2022-09-10T03:36:58.271Z,3.37
2022-09-10T03:40:01.389Z,3.70
2022-09-10T03:43:05.512Z,4.10
2022-09-10T03:46:08.642Z,4.07
2022-09-10T03:49:13.093Z,3.90
2022-09-10T03:52:16.528Z,4.70
2022-09-10T03:55:19.614Z,4.80
2022-09-10T03:58:22.813Z,5.20
2022-09-10T04:01:25.951Z,5.13
2022-09-10T04:04:31.914Z,4.60
2022-09-10T04:07:35.174Z,4.63
2022-09-10T04:10:38.839Z,4.13
2022-09-10T04:13:41.931Z,4.20
2022-09-10T04:16:45.005Z,3.67
2022-09-10T04:19:51.089Z,4.03
2022-09-10T04:22:56.689Z,4.50
2022-09-10T04:25:59.769Z,4.67
2022-09-10T04:29:02.836Z,4.83
2022-09-10T04:32:06.093Z,5.47
2022-09-10T04:35:10.951Z,4.60
2022-09-10T04:38:14.026Z,3.90
2022-09-10T04:41:18.246Z,4.07
2022-09-10T04:44:21.340Z,4.87
2022-09-10T04:47:24.432Z,4.50
2022-09-10T04:50:28.959Z,4.70
2022-09-10T04:53:34.488Z,4.77
2022-09-10T04:56:37.586Z,4.17
2022-09-10T04:59:40.619Z,4.50
2022-09-10T05:02:43.714Z,3.77
2022-09-10T05:05:48.230Z,4.17
2022-09-10T05:08:51.511Z,3.87
2022-09-10T05:11:54.581Z,3.80
2022-09-10T05:14:57.637Z,5.13
2022-09-10T05:18:00.762Z,6.93
2022-09-10T05:21:05.606Z,4.80
2022-09-10T05:24:08.773Z,4.40
2022-09-10T05:27:11.861Z,3.80
2022-09-10T05:30:15.175Z,4.13
2022-09-10T05:33:18.440Z,4.10
2022-09-10T05:36:22.902Z,3.77
2022-09-10T05:39:25.977Z,3.70
2022-09-10T05:42:29.003Z,3.60
2022-09-10T05:45:32.074Z,3.73
2022-09-10T05:48:37.652Z,3.40
2022-09-10T05:51:45.390Z,3.40
2022-09-10T05:54:48.461Z,3.20
2022-09-10T05:57:51.526Z,3.40
2022-09-10T06:00:55.260Z,3.73
2022-09-10T06:03:58.447Z,3.57
2022-09-10T06:07:04.707Z,3.73
2022-09-10T06:10:08.901Z,3.53
2022-09-10T06:13:12.319Z,3.03
2022-09-10T06:16:16.248Z,3.60
2022-09-10T06:19:19.921Z,3.57
2022-09-10T06:22:24.387Z,3.47
2022-09-10T06:25:27.459Z,2.90
2022-09-10T06:28:30.527Z,3.27
2022-09-10T06:31:34.792Z,2.27
2022-09-10T06:34:38.040Z,2.80
2022-09-10T06:37:42.514Z,2.30
2022-09-10T06:40:54.756Z,2.13
2022-09-10T06:43:58.442Z,2.20
2022-09-10T06:47:39.333Z,2.20
2022-09-10T06:50:25.544Z,2.13
2022-09-10T06:53:33.311Z,2.67
2022-09-10T06:56:36.379Z,2.20
2022-09-10T06:59:41.339Z,1.90
2022-09-10T07:02:44.505Z,1.80
2022-09-10T07:05:48.579Z,2.05
2022-09-10T07:08:57.677Z,1.80
2022-09-10T07:12:00.718Z,1.60
2022-09-10T07:15:03.784Z,1.67
2022-09-10T07:18:06.903Z,1.45
2022-09-10T07:21:11.786Z,1.88
2022-09-10T07:24:16.320Z,1.55
2022-09-10T07:27:19.375Z,1.20
2022-09-10T07:30:23.263Z,1.63
2022-09-10T07:33:26.330Z,1.25
2022-09-10T07:36:30.640Z,1.35
2022-09-10T07:39:35.138Z,1.48
2022-09-10T07:42:38.248Z,1.30
2022-09-10T07:45:41.733Z,1.10
2022-09-10T07:48:44.850Z,1.50
2022-09-10T07:51:47.926Z,1.33
2022-09-10T07:54:52.470Z,1.52
2022-09-10T07:57:59.902Z,1.55
2022-09-10T08:01:09.177Z,1.60
2022-09-10T08:04:12.348Z,1.60
2022-09-10T08:07:17.313Z,1.00
2022-09-10T08:10:22.866Z,1.27
2022-09-10T08:13:29.890Z,1.88
2022-09-10T08:16:33.265Z,1.30
2022-09-10T08:19:36.888Z,1.20
2022-09-10T08:22:39.954Z,1.40
2022-09-10T08:25:51.542Z,1.23
2022-09-10T08:28:56.597Z,1.50
2022-09-10T08:31:59.828Z,1.35
2022-09-10T08:35:04.990Z,1.38
2022-09-10T08:38:08.951Z,1.70
2022-09-10T08:41:32.419Z,1.10
2022-09-10T08:44:41.528Z,1.63
2022-09-10T08:47:55.434Z,1.40
2022-09-10T08:51:02.463Z,1.52
2022-09-10T08:54:12.151Z,1.08
2022-09-10T08:57:24.468Z,1.23
2022-09-10T09:00:32.219Z,1.10
2022-09-10T09:03:39.131Z,1.02
2022-09-10T09:06:47.619Z,0.90
2022-09-10T09:09:52.390Z,1.15
2022-09-10T09:13:23.037Z,1.35
2022-09-10T09:16:45.304Z,0.90
2022-09-10T09:19:59.459Z,1.27
2022-09-10T09:23:14.709Z,1.10
2022-09-10T09:26:19.405Z,1.00
2022-09-10T09:29:28.676Z,0.80
2022-09-10T09:32:34.993Z,1.40
2022-09-10T09:35:47.788Z,0.60
2022-09-10T09:38:51.546Z,0.75
2022-09-10T09:42:02.878Z,0.80
2022-09-10T09:45:17.319Z,0.75
2022-09-10T09:48:22.175Z,0.88
2022-09-10T09:51:27.048Z,0.95
2022-09-10T09:55:09.961Z,0.80
2022-09-10T09:58:29.598Z,1.02
2022-09-10T10:01:35.137Z,0.82
2022-09-10T10:04:42.145Z,1.10
2022-09-10T10:07:49.805Z,1.25
2022-09-10T10:10:53.990Z,1.00
2022-09-10T10:14:13.894Z,0.73
2022-09-10T10:17:40.289Z,0.70
2022-09-10T10:20:43.356Z,0.73
2022-09-10T10:23:46.822Z,0.70
2022-09-10T10:26:49.931Z,0.60
2022-09-10T10:29:55.442Z,1.05
2022-09-10T10:33:01.869Z,0.70
2022-09-10T10:36:11.690Z,0.77
2022-09-10T10:39:24.424Z,0.68
2022-09-10T10:42:32.511Z,0.63
2022-09-10T10:45:38.843Z,0.50
2022-09-10T10:49:06.691Z,0.98
2022-09-10T10:52:15.489Z,0.68
2022-09-10T10:55:24.436Z,0.50
2022-09-10T10:58:53.503Z,1.13
2022-09-10T11:02:04.046Z,0.60
2022-09-10T11:05:20.245Z,0.70
2022-09-10T11:08:33.284Z,0.80
2022-09-10T11:11:45.770Z,0.60
2022-09-10T11:14:53.366Z,0.80
2022-09-10T11:18:01.029Z,0.83
2022-09-10T11:21:12.481Z,0.93
2022-09-10T11:24:21.842Z,0.60
2022-09-10T11:27:31.637Z,1.17
2022-09-10T11:30:36.189Z,0.70
2022-09-10T11:33:47.269Z,0.90
2022-09-10T11:36:57.348Z,0.60
2022-09-10T11:40:05.405Z,0.73
2022-09-10T11:43:13.425Z,0.60
2022-09-10T11:46:22.030Z,0.60
2022-09-10T11:49:33.381Z,0.70
2022-09-10T11:52:40.501Z,0.63
2022-09-10T11:56:07.298Z,0.80
2022-09-10T11:59:22.632Z,0.70
2022-09-10T12:02:55.346Z,0.90
2022-09-10T12:06:06.568Z,0.60
2022-09-10T12:09:21.918Z,0.70
2022-09-10T12:12:33.523Z,0.60
2022-09-10T12:15:37.898Z,0.50
2022-09-10T12:18:45.545Z,0.90
2022-09-10T12:21:52.738Z,0.90
2022-09-10T12:25:03.050Z,1.00
2022-09-10T12:28:08.179Z,0.80
2022-09-10T12:31:13.125Z,1.00
2022-09-10T12:34:18.852Z,0.60
2022-09-10T12:37:25.237Z,0.70
2022-09-10T12:40:49.666Z,0.70
2022-09-10T12:43:57.433Z,0.60
2022-09-10T12:47:50.508Z,0.50
2022-09-10T12:50:57.876Z,0.70
2022-09-10T12:54:20.301Z,0.63
2022-09-10T12:57:33.397Z,1.40
2022-09-10T13:00:46.692Z,0.67
2022-09-10T13:03:54.982Z,0.50
2022-09-10T13:07:01.572Z,0.60
2022-09-10T13:10:08.863Z,0.50
2022-09-10T13:13:32.998Z,0.60
2022-09-10T13:16:41.985Z,0.80
2022-09-10T13:19:51.198Z,0.70
2022-09-10T13:22:57.455Z,0.50
2022-09-10T13:26:48.444Z,0.70
2022-09-10T13:29:57.474Z,0.60
2022-09-10T13:33:05.172Z,0.70
2022-09-10T13:36:23.368Z,0.60
2022-09-10T13:39:54.722Z,0.70
2022-09-10T13:43:21.500Z,0.70
2022-09-10T13:46:32.283Z,0.83
2022-09-10T13:49:41.164Z,0.70
2022-09-10T13:52:48.357Z,0.70
2022-09-10T13:55:58.555Z,0.90
2022-09-10T13:59:04.075Z,0.60
2022-09-10T14:02:08.662Z,0.80
2022-09-10T14:05:35.310Z,0.77
2022-09-10T14:08:42.312Z,0.87
2022-09-10T14:11:45.819Z,0.80
2022-09-10T14:14:52.416Z,1.20
2022-09-10T14:17:59.465Z,1.00
2022-09-10T14:21:03.445Z,0.60
2022-09-10T14:24:07.039Z,0.60
2022-09-10T14:27:18.502Z,0.50
2022-09-10T14:30:26.747Z,0.53
2022-09-10T14:33:34.535Z,0.60
2022-09-10T14:36:37.614Z,0.57
2022-09-10T14:39:45.493Z,0.80
2022-09-10T14:42:49.974Z,0.73
2022-09-10T14:45:53.197Z,0.90
2022-09-10T14:49:16.173Z,0.93
2022-09-10T14:52:19.938Z,0.90
2022-09-10T14:55:25.319Z,1.03
2022-09-10T14:58:29.388Z,1.43
2022-09-10T15:01:32.795Z,1.20
2022-09-10T15:04:38.948Z,0.80
2022-09-10T15:07:42.866Z,0.77
2022-09-10T15:10:45.985Z,0.90
2022-09-10T15:13:49.824Z,1.47
2022-09-10T15:16:54.180Z,0.77
2022-09-10T15:19:58.985Z,1.40
2022-09-10T15:23:02.023Z,1.07
2022-09-10T15:26:06.357Z,1.00
2022-09-10T15:29:09.519Z,1.00
2022-09-10T15:32:12.681Z,0.90
2022-09-10T15:35:18.780Z,0.77
2022-09-10T15:38:22.142Z,1.30
2022-09-10T15:41:25.210Z,0.87
2022-09-10T15:44:29.300Z,1.03
2022-09-10T15:47:33.601Z,0.70
2022-09-10T15:50:39.164Z,0.83
2022-09-10T15:53:43.190Z,1.20
2022-09-10T15:56:46.308Z,1.20
2022-09-10T15:59:49.627Z,1.20
2022-09-10T16:02:53.144Z,1.40
2022-09-10T16:06:02.546Z,1.10
2022-09-10T16:09:07.867Z,1.90
2022-09-10T16:12:11.143Z,1.63
2022-09-10T16:15:14.251Z,1.30
2022-09-10T16:18:17.294Z,1.23
2022-09-10T16:21:23.914Z,1.37
2022-09-10T16:24:27.004Z,1.40
2022-09-10T16:27:30.048Z,1.60
2022-09-10T16:30:33.180Z,5.00
2022-09-10T16:33:36.556Z,3.47
2022-09-10T16:36:41.039Z,1.57
2022-09-10T16:39:44.233Z,2.10
2022-09-10T16:42:47.888Z,1.50
2022-09-10T16:45:52.023Z,1.37
2022-09-10T16:48:55.882Z,1.40
2022-09-10T16:52:00.319Z,1.80
2022-09-10T16:55:04.521Z,1.97
2022-09-10T16:58:07.612Z,1.83
2022-09-10T17:01:11.083Z,2.50
2022-09-10T17:04:19.231Z,2.40
2022-09-10T17:07:25.063Z,4.50
2022-09-10T17:10:28.160Z,1.63
2022-09-10T17:13:31.255Z,2.70
2022-09-10T17:16:37.792Z,1.50
2022-09-10T17:19:40.858Z,1.70
2022-09-10T17:22:46.161Z,1.10
2022-09-10T17:25:49.254Z,6.97
2022-09-10T17:28:56.521Z,2.00
2022-09-10T17:31:59.624Z,1.53
2022-09-10T17:35:02.713Z,2.00
2022-09-10T17:38:08.365Z,4.17
2022-09-10T17:41:14.512Z,1.70
2022-09-10T17:44:18.135Z,1.87
2022-09-10T17:47:21.382Z,2.10
2022-09-10T17:50:24.455Z,1.50
2022-09-10T17:53:29.449Z,1.60
2022-09-10T17:56:32.915Z,1.90
2022-09-10T17:59:37.369Z,1.43
2022-09-10T18:02:40.502Z,1.43
2022-09-10T18:05:43.719Z,1.37
2022-09-10T18:08:48.394Z,1.27
2022-09-10T18:11:51.743Z,1.80
2022-09-10T18:14:54.846Z,1.00
2022-09-10T18:17:59.631Z,1.10
2022-09-10T18:21:15.597Z,1.00
2022-09-10T18:24:22.786Z,1.07
2022-09-10T18:27:26.396Z,1.20
2022-09-10T18:30:30.155Z,1.47
2022-09-10T18:33:36.662Z,1.07
2022-09-10T18:36:40.077Z,1.17
2022-09-10T18:39:44.875Z,1.10
2022-09-10T18:42:48.264Z,1.30
2022-09-10T18:45:51.748Z,1.50
2022-09-10T18:48:55.070Z,1.50
2022-09-10T18:51:58.774Z,1.30
2022-09-10T18:55:03.437Z,1.40
2022-09-10T18:58:06.861Z,1.00
2022-09-10T19:01:12.602Z,0.73
2022-09-10T19:04:18.381Z,0.80
2022-09-10T19:07:22.136Z,0.97
2022-09-10T19:10:26.876Z,1.10
2022-09-10T19:13:30.406Z,1.00
2022-09-10T19:16:35.373Z,1.10
2022-09-10T19:19:38.760Z,1.00
2022-09-10T19:22:43.175Z,1.27
2022-09-10T19:25:53.209Z,1.10
2022-09-10T19:28:58.355Z,1.30
2022-09-10T19:32:02.599Z,1.27
2022-09-10T19:35:06.448Z,1.00
2022-09-10T19:38:33.861Z,1.10
2022-09-10T19:41:35.416Z,1.13
2022-09-10T19:44:38.790Z,2.03
2022-09-10T19:47:43.141Z,1.10
2022-09-10T19:50:46.467Z,1.10
2022-09-10T19:53:50.622Z,1.50
2022-09-10T19:56:56.736Z,1.10
2022-09-10T19:59:59.966Z,1.20
2022-09-10T20:03:03.227Z,1.60
2022-09-10T20:06:07.568Z,1.97
2022-09-10T20:09:11.228Z,1.23
2022-09-10T20:12:16.649Z,1.50
2022-09-10T20:15:20.325Z,1.60
2022-09-10T20:18:27.569Z,1.47
2022-09-10T20:21:31.702Z,1.57
2022-09-10T20:24:34.823Z,1.43
2022-09-10T20:27:39.281Z,1.63
2022-09-10T20:30:43.903Z,1.90
2022-09-10T20:33:47.005Z,2.13
2022-09-10T20:36:52.113Z,1.70
2022-09-10T20:39:56.782Z,1.97
2022-09-10T20:43:01.269Z,2.63
2022-09-10T20:46:04.467Z,3.60
2022-09-10T20:49:07.558Z,2.23
2022-09-10T20:52:10.983Z,2.00
2022-09-10T20:55:14.186Z,2.57
2022-09-10T20:58:18.963Z,2.20
2022-09-10T21:01:23.278Z,1.27
2022-09-10T21:04:26.468Z,1.53
2022-09-10T21:07:29.590Z,2.03
2022-09-10T21:10:35.990Z,2.40
2022-09-10T21:13:45.071Z,2.60
2022-09-10T21:16:48.313Z,2.70
2022-09-10T21:19:51.413Z,2.60
2022-09-10T21:22:54.528Z,2.03
2022-09-10T21:25:57.597Z,2.27
2022-09-10T21:29:04.437Z,2.40
2022-09-10T21:32:07.732Z,1.63
2022-09-10T21:35:11.350Z,1.97
2022-09-10T21:38:15.207Z,1.70
2022-09-10T21:41:21.739Z,1.53
2022-09-10T21:44:26.543Z,1.97
2022-09-10T21:47:29.601Z,1.47
2022-09-10T21:50:32.675Z,2.43
2022-09-10T21:53:36.500Z,1.50
2022-09-10T21:56:39.619Z,1.80
2022-09-10T21:59:44.396Z,2.20
2022-09-10T22:02:49.524Z,1.80
2022-09-10T22:05:52.665Z,1.70
2022-09-10T22:08:58.413Z,1.60
2022-09-10T22:12:01.498Z,1.90
2022-09-10T22:15:07.923Z,2.20
2022-09-10T22:18:11.192Z,1.87
2022-09-10T22:21:14.395Z,1.80
2022-09-10T22:24:18.846Z,1.60
2022-09-10T22:27:21.910Z,1.83
2022-09-10T22:30:27.636Z,1.63
2022-09-10T22:33:30.745Z,1.50
2022-09-10T22:36:35.651Z,1.50
2022-09-10T22:39:38.776Z,2.77
2022-09-10T22:42:41.878Z,2.53
2022-09-10T22:45:46.330Z,2.03
2022-09-10T22:48:49.403Z,2.40
2022-09-10T22:51:52.865Z,1.63
2022-09-10T22:54:55.936Z,1.80
2022-09-10T22:57:59.124Z,2.00
2022-09-10T23:01:06.238Z,1.67
2022-09-10T23:04:13.229Z,1.83
2022-09-10T23:07:16.642Z,1.60
2022-09-10T23:10:20.838Z,2.23
2022-09-10T23:13:23.900Z,3.03
2022-09-10T23:16:29.957Z,2.10
2022-09-10T23:19:32.980Z,1.50
2022-09-10T23:22:36.041Z,1.50
2022-09-10T23:25:39.403Z,1.90
2022-09-10T23:28:43.262Z,2.03
2022-09-10T23:31:48.331Z,1.90
2022-09-10T23:34:51.562Z,1.63
2022-09-10T23:37:55.095Z,1.70
2022-09-10T23:41:00.366Z,1.70
2022-09-10T23:44:03.951Z,1.50
2022-09-10T23:47:08.455Z,1.80
2022-09-10T23:50:11.687Z,1.60
2022-09-10T23:53:15.133Z,2.10
2022-09-10T23:56:20.722Z,1.57
2022-09-10T23:59:23.868Z,1.60
